Timeline UpdatesTrip UpdatesNews PostsPvt Posts♥♥Travel TipsAdmin PostsConv PostsFollowed PostsChat RequestsBlog PostsPNR Posts

Disclaimer
Search
 
 
Thu Oct 23, 2014 21:18:30 ISTHomeTrainsΣChainsAtlasPNRForumGalleryNewsFAQTripsMembersLoginFeedback
No Recent News for this Train
Other Trains in the News **new
Latest...
.
Sat Jul 30, 2011 (04:46AM)
⇐ Return Journey: Train# 57562

57561/Kacheguda - Manmad Passenger (UnReserved)

Time-Table HAS CHANGED.
Sep 03 2014 (11:09AM)
Change Departure Station:
Change Arrival Station:
Post a Train Travel TipPost a Train Travel Tip **new
Post a Comment/Question/Picture/VideoPost a Comment/Question/Picture/Video
Pantry/Catering
✕ NO Pantry Car
✓ Catering Avbl
RSA - Rake Sharing
57542-57562-57561-57590-57541-57558-57557
Rake/Coach Composition
LOCO-SLR-GEN-GEN-GEN-GEN-GEN-GEN-GEN-GEN-GEN-GEN-SLR.
Loco
MLY WDM 2/3A or WDG 3A.
News    PNR    Forum    Time-Table    Availability    Fare Chart    Map    Arr/Dep History    Trips    Gallery    ΣChains    X/O    Timeline    
Travel Time: 8h 30m    55 halts    Distance: 307 km    Avg Speed: 36 km/hr
Type: Passenger
Zone: SCR/South Central
Departs @ 04:50 (Avg 2m late)
Platform# 1
SMTWTFS
Hyderabad Kacheguda/KCG 
Arrives @ 13:20 (Avg 45m late)
Platform# ???
SMTWTFS
Purna Junction/PAU 

55 halts. 58 intermediate Stations between Hyderabad Kacheguda and Purna Junction

Show ALL intermediate Stations  Show Old Time-Table

#TrkCodeStation NameX/OArrivesAvgDepartsAvgHaltPFDay#KmSpeedElevZoneAddress
1|--|KCGHyderabad Kacheguda (5)»  -04:50+2110.058494mSCRHyderabad - 500027, Telangana
2/==/VARVidya Nagar (2)  04:52-04:53-1m--11.944505mSCRHyderabad, Telangana
3/==/JOOJamai Osmania (2)  04:55-04:56-1m--13.436515mSCRHyderabad, Telangana
4/==/ATCArts College (2)X  04:57-04:58-1m--14.033521mSCRHyderabad, Telangana
5/=-/STPDSitafalmandi (4)  05:00+805:01+81m215.180533mSCRSecunderabad, Telangana
6/--/LGDHLalaguda Gate (2)  05:03-05:04-1m--17.74543mSCRSecunderabad, Telangana
7/--/MJFMalkajgiri (3)X  05:18+1305:19+131m318.727535mSCRSecunderabad, Telangana
8|==|DYEDayanand Nagar (2)  05:21-05:22-1m--19.636537mSCRSecunderabad, Telangana
9|==|SFXSafilguda (2)  05:23-05:24-1m--110.234544mSCRSecunderabad, Telangana
10|==|RKORamakistapuram Gate (2)  05:27-05:28-1m--111.933561mSCRSecunderabad, Telangana
11|==|AMQAmmuguda Halt (2)  05:30-05:31-1m--113.083569mSCRSecunderabad, Telangana
12|==|CVBCavalry Barracks (3)  05:32+1505:33+151m3114.424575mSCRSecunderabad, Telangana
13|==|ALWAlwal (2)  05:36-05:37-1m--115.648580mSCRSecunderabad, Telangana
14|==|BOZBolarum Bazar (2)  05:39-05:40-1m--117.213584mSCRSecunderabad, Telangana
15|=-|BMOBolarum (3)X  05:48+1305:49+131m1118.927597mSCRSecunderabad, Telangana
16|--|GDPLGundla Pochampally (1)X  06:00 06:01+906:01 06:02+131m--124.2103601mSCRRangareddy Dist., Telangana
17|--|GWVGowdavalli (1)X  06:05-06:06-1m1129.423601mSCRRangareddy Dist., Telangana
18|--|MEDMedchal (3)  06:15+1306:16+151m2132.879602mSCRRangareddy Dist., Telangana
19|--|DBVDabilpur (1)  06:19-06:20-1m1136.780611mSCRRangareddy Dist., Telangana
20|--|KUCHKuchavaram Halt (1)X  06:25-06:26-1m1143.420595mSCRRangareddy, Telangana
21|--|MOBManoharabad (2)  06:34+1406:35+191m--146.0-593mSCRMedak Dist., Telangana
22|--|PAPMPalata Potaram (1)  06:39-06:40-1m1158.626522mSCRMedak Dist., Telangana
23|--|BMPLBrahmanapalli (1)  06:44-06:45-1m1160.321528mSCRMedak Dist., Telangana
24|--|MEMasaipet (2)X  06:53+1806:54+221m--163.146520mSCRMedak Dist., Telangana
25|--|SHANSrinivasa NagarX  06:58-06:59-1m--166.232522mSCRMedak Dist., Telangana
26|--|WDRWadiaram (2)  07:08+2107:09+231m--171.066547mSCRMedak Dist., Telangana
27|--|MZLMirzapalli (1)  07:15+2507:16+281m1177.529530mSCRMedak Dist., Telangana
28|--|AKEAkanapet (1)X  07:38+1707:39+181m1188.337566mSCRMedak District., Telangana
29|--|BKUBhiknur  07:49+1907:50+201m--194.461575mSCRNizamabad Dist., Telangana
30|--|THPRTippapur (1)  07:54-07:55-1m1198.555549mSCRNizamabad Dist., Telangana
31|--|TMDTalmadla  08:01+2308:02+231m--1104.023559mSCRNizamabad Dist., Telangana
32|--|KMCKamareddi (3)  08:28+1108:30+122m11114.075528mSCRNizamabad Dist., Telangana
33|--|UPWUppalavai  08:39+1508:40+151m--1125.357529mSCRNizamabad Dist., Telangana
34|--|SCPSirnapalli  08:51+1508:52+161m--1135.753456mSCRNizamabad Dist., Telangana
35|--|IDLIndalvai (1)X  09:01+1709:02+191m11143.647439mSCRNizamabad Dist., Telangana
36|--|DHPDichpalliX  09:14+1909:15+211m--1153.139424mSCRNizamabad Dist., Telangana
37|--|NZBNizamabad (3)  09:35+1309:40+145m31165.947384mSCRNizamabad, Telangana
38|--|JKMJankampet Junction (1)  09:48+1909:49+191m11172.163391mSCRJankampet Junction nizamabad dist., Telangana
39|--|NVTNavipet (2)  09:58+2009:59+211m--1181.670374mSCRNizamabad Dist., Telangana
40|--|FKBFakrabad (1)  10:05-10:06-1m11188.618348mSCRNizamabad Dist., Telangana
41|--|BSXBasar (2)X  10:28+810:30+102m21195.359358mSCRDist Adilabad, Telangana
42|--|DABDharmabad (2)  10:40+1210:41+171m--1205.178354mSCRDegaon, Maharashtra
43|--|SQESamarala Halt  10:46-10:47-1m--1211.654360mSCRDharmabad, Maharashtra
44|--|KEKKarkheli  10:55+1910:56+191m--1218.955358mSCRBiloli, Maharashtra
45|--|BLSABolsa  11:04+1911:05+191m--1226.256361mSCRDharmabad, Maharashtra
46|--|UMRIUmri (1)  11:14+1911:15+191m11234.694381mSCRHuzur Sahib Nanded, Maharashtra
47|--|SLGHShelgaon Halt  11:20-11:21-1m--1242.433378mSCRMudkhed, Maharashtra
48|--|SVNSivungaon  11:29+2011:30+201m--1246.917395mSCRHuzur Sahib Nanded, Maharashtra
49|--|MUEMudkhed Junction (4)  11:55+2811:57+282m--1254.161378mSCRMudkhed, Maharashtra
50|--|MGCMugat  12:06+3212:07+331m--1263.240360mSCRHuzur Sahib Nanded, Maharashtra
51|--|PARDPathradX  12:12-12:13-1m--1266.539363mSCRHuzur Sahib Nanded, Maharashtra
52|--|MTDIMaltekdi  12:23 12:24+3112:24 12:25+321m--1273.733362mSCRNanded, Maharashtra
53|--|NEDHazur Sahib Nanded (4)X  12:30+2412:35+285m--1276.443366mSCRNanded, Maharashtra
54|--|WNGWanegaon  12:44-12:45-1m--1282.931371mSCRChudawa, Maharashtra
55|--|LBGLimbgaon (2)X  12:54+4012:55+401m--1287.564390mSCRHuzur Sahib Nanded, Maharashtra
56|--|CRUChudawa (1)X  13:04+4313:05+481m11297.140392mSCRHingoli, Maharashtra
57|--|PAUPurna Junction (4)•X  13:20+4513:25+545m--1307.052384mSCRPurna, Maharashtra
58|--|MQLMirkhal  13:39+1:0013:40+1:001m--1319.136405mSCRPurna, Maharashtra
59|--|PIZPingli (1)  13:49+1:0013:50+1:031m11324.551399mSCRParbhani, Maharashtra
60|--|PBNParbhani Junction (3)X  14:03+4314:05+462m11335.573414mSCRParbhani 431401, Maharashtra
61|--|PGPergaon  14:15+1:1114:16+1:121m--1347.673441mSCRParbhani, Maharashtra
62|--|DAVDevalgaon Avchar  14:21+1:1514:22+1:181m--1353.679425mSCRParbhani, Maharashtra
63|--|MVOManwath Road (2)  14:29+1:1714:30+1:191m--1362.954421mSCRParbhani, Maharashtra
64|--|DGPPDhengli PimpalgaonX  14:36+1:2514:37+1:281m--1368.326407mSCRSatuna, Maharashtra
65|--|SELUSelu (2)  14:59+1:0815:00+1:101m--1377.968436mSCRParbhani, Maharashtra
66|--|SCOSatunaX  15:09+1:1915:10+1:211m--1388.153440mSCRSatona, Maharashtra
67|--|UPRUsmanpur  15:19+1:2115:20+1:231m--1396.063444mSCRUsmanpur, Maharashtra
68|--|PTUPartur (2)  15:29+1:2315:30+1:261m--1405.548465mSCRJalna, Maharashtra
69|--|PDGParadgaon  15:39-15:40-1m--1412.742454mSCRUsmanpur, Maharashtra
70|--|RNERanjani  15:49+1:2315:50+1:251m--1418.975469mSCRJalna, Maharashtra
71|--|KODIKodiX  15:59+1:2916:00+1:301m--1430.266473mSCRRanjani, Maharashtra
72|--|SVDSarwariX  16:09+1:3216:10+1:331m--1440.18493mSCRRanjani, Maharashtra
73|--|JJalna (3)  17:23+3517:25+382m--1449.981502mSCRJalna, Maharashtra
74|--|BDUBadnapur  17:39+3817:40+471m--1468.971523mSCRJalna, Maharashtra
75|--|KMVKarmad  17:53+5417:54+591m--1484.324567mSCRAurangabad, Maharashtra
76|--|CTHChikalthan  18:04+1:0518:05+1:051m--1488.2-582mSCRAurangabad, Maharashtra
77|--|MKDDMukundwadi Halt (1)X  18:09-18:10-1m11502.511580mSCRAurangabad, Maharashtra
78|--|AWBAurangabad (5)X  19:05+2819:10+305m--1512.583561mSCRAurangabad 431001, Maharashtra
79|--|DLBDaulatabad (1)  19:19+3519:20+361m11525.062575mSCRDaulatabad, Maharashtra
80|--|POZPotul (1)  19:38 19:29+3519:39 19:30+361m11534.351554mSCRLasur, Maharashtra
81|--|LSRLasur (2)X  19:44+3519:45+371m--1546.1101536mSCRAurangabad, Maharashtra
82|--|KAJGKaranjgaonX  19:51+4219:52+461m--1556.231523mSCRLasur, Maharashtra
83|--|PSDParsoda  20:01+4520:02+471m--1560.962530mSCRRotegaon, Maharashtra
84|--|RGORotegaonX  20:14+4620:15+501m--1573.2145547mSCRAurangabad, Maharashtra
85|--|TRTarur  20:24+5420:25+561m--1595.011586mSCRTaru, Maharashtra
86|--|NSLNagarsol (2)X  20:59+3721:00+421m--1601.211589mSCRDist. Nashik, Maharashtra
87|--/ANKAnkai (3)X  21:54+1621:55+1:281m31611.111620mSCRDist. Nashik, Maharashtra
88/--/MMRManmad Junction (6)  23:05+1:12-61624.0-580mCRManmad 423104, Maharashtra
Scroll to Top
Scroll to Bottom